Time;durP1;ratioP1;P1;durP2;ratioP2;P2;SDS_P1;SDS_P2;PMS_P1;PMS_P2;Temp;Humidity;BMP_temperature;BMP_pressure;BME280_temperature;BME280_humidity;BME280_pressure;Samples;Min_cycle;Max_cycle;Signal;HPM_P1;HPM_P2
2023/11/21 00:00:20;;;;;;;35.80;15.90;;;9.60;99.90;;;;;;5075029;28;37060;-79
2023/11/21 00:02:46;;;;;;;29.00;14.97;;;9.60;99.90;;;;;;5068307;28;47248;-79
2023/11/21 00:05:14;;;;;;;27.30;13.97;;;9.70;99.90;;;;;;5074365;28;37596;-79
2023/11/21 00:07:41;;;;;;;26.63;14.13;;;9.70;99.90;;;;;;5077083;28;39709;-79
2023/11/21 00:10:08;;;;;;;25.70;13.57;;;9.60;99.90;;;;;;5072413;28;38781;-80
2023/11/21 00:12:35;;;;;;;21.97;11.97;;;9.70;99.90;;;;;;5070667;28;38666;-79
2023/11/21 00:15:01;;;;;;;25.40;14.03;;;9.70;99.90;;;;;;5069997;28;37764;-79
2023/11/21 00:17:28;;;;;;;29.87;14.27;;;9.80;99.90;;;;;;5071443;28;39612;-79
2023/11/21 00:19:54;;;;;;;29.97;13.50;;;9.80;99.90;;;;;;5075840;28;38557;-79
2023/11/21 00:22:20;;;;;;;23.67;12.47;;;9.80;99.90;;;;;;5070959;28;38174;-79
2023/11/21 00:24:47;;;;;;;24.10;12.43;;;9.70;99.90;;;;;;5068733;28;37482;-79
2023/11/21 00:27:14;;;;;;;24.07;11.47;;;9.70;99.90;;;;;;5065077;28;39661;-79
2023/11/21 00:29:40;;;;;;;20.83;11.13;;;9.70;99.90;;;;;;5063455;28;39630;-79
2023/11/21 00:32:07;;;;;;;25.17;11.97;;;9.80;99.90;;;;;;5070398;28;38818;-79
2023/11/21 00:34:34;;;;;;;28.47;12.90;;;9.70;99.90;;;;;;5064595;28;38254;-79
2023/11/21 00:37:02;;;;;;;18.90;10.30;;;9.60;99.90;;;;;;5065071;28;38975;-79
2023/11/21 00:39:29;;;;;;;16.70;9.37;;;9.60;99.90;;;;;;5047422;28;47306;-79
2023/11/21 00:41:55;;;;;;;20.97;9.80;;;9.60;99.90;;;;;;5066549;28;37519;-79
2023/11/21 00:44:21;;;;;;;16.30;9.73;;;9.60;99.90;;;;;;5071821;28;35925;-79
2023/11/21 00:46:47;;;;;;;20.47;9.30;;;9.60;99.90;;;;;;5070390;28;40820;-79
2023/11/21 00:49:13;;;;;;;19.33;9.07;;;9.70;99.90;;;;;;5071475;28;38732;-79
2023/11/21 00:51:39;;;;;;;21.87;8.97;;;9.70;99.90;;;;;;5069474;28;38030;-79
2023/11/21 00:54:06;;;;;;;26.70;9.37;;;9.70;99.90;;;;;;5063620;28;37136;-79
2023/11/21 00:56:33;;;;;;;19.77;7.93;;;9.70;99.90;;;;;;5068766;28;38714;-79
2023/11/21 00:59:00;;;;;;;20.87;8.07;;;9.70;99.90;;;;;;5069108;28;38561;-79
2023/11/21 01:01:26;;;;;;;14.47;7.87;;;9.80;99.90;;;;;;5068711;28;38457;-80
2023/11/21 01:03:52;;;;;;;16.90;7.93;;;9.80;99.90;;;;;;5071327;28;36691;-79
2023/11/21 01:06:19;;;;;;;18.60;8.30;;;9.80;99.90;;;;;;5067925;28;39672;-78
2023/11/21 01:12:17;;;;;;;15.37;7.80;;;9.90;99.90;;;;;;5093748;28;50659;-81
2023/11/21 01:15:22;;;;;;;13.60;6.57;;;9.90;99.90;;;;;;5091527;28;37340;-82
2023/11/21 01:17:48;;;;;;;11.30;5.97;;;10.00;99.90;;;;;;5094382;28;48409;-82
2023/11/21 01:20:15;;;;;;;13.27;6.40;;;10.00;99.90;;;;;;5091565;22;38962;-80
2023/11/21 01:22:41;;;;;;;16.23;7.10;;;10.00;99.90;;;;;;5077633;28;38994;-80
2023/11/21 01:25:07;;;;;;;12.93;6.23;;;10.00;99.90;;;;;;5074536;28;37833;-80
2023/11/21 01:27:34;;;;;;;14.07;6.07;;;10.00;99.90;;;;;;5089739;28;38554;-80
2023/11/21 01:30:02;;;;;;;13.10;6.47;;;10.00;99.90;;;;;;5070413;28;36058;-80
2023/11/21 01:32:28;;;;;;;14.87;6.00;;;10.10;99.90;;;;;;5067248;28;47209;-80
2023/11/21 01:34:55;;;;;;;14.23;6.80;;;10.10;99.90;;;;;;5070646;28;36244;-80
2023/11/21 01:37:21;;;;;;;12.10;6.43;;;10.10;99.90;;;;;;5075965;28;39712;-80
2023/11/21 01:39:48;;;;;;;14.60;7.33;;;10.10;99.90;;;;;;5094226;28;38488;-79
2023/11/21 01:42:14;;;;;;;14.00;6.40;;;10.10;99.90;;;;;;5070004;28;38012;-80
2023/11/21 01:44:42;;;;;;;14.77;6.33;;;10.20;99.90;;;;;;5081194;28;35743;-80
2023/11/21 01:47:10;;;;;;;11.77;6.57;;;10.20;99.90;;;;;;5067021;28;37903;-80
2023/11/21 01:49:36;;;;;;;23.50;8.30;;;10.20;99.90;;;;;;5094236;28;37806;-80
2023/11/21 01:52:04;;;;;;;21.67;7.97;;;10.20;99.90;;;;;;5079729;28;38463;-80
2023/11/21 01:54:33;;;;;;;16.53;6.97;;;10.20;99.90;;;;;;5075477;28;36892;-80
2023/11/21 01:57:02;;;;;;;11.77;6.60;;;10.20;99.90;;;;;;5071534;28;39060;-80
2023/11/21 01:59:34;;;;;;;19.93;8.47;;;10.20;99.90;;;;;;5080365;28;48948;-81
2023/11/21 02:02:00;;;;;;;22.40;8.57;;;10.20;99.90;;;;;;5520325;22;37012;-78
2023/11/21 02:04:27;;;;;;;11.63;6.23;;;10.20;99.90;;;;;;5085596;28;38295;-79
2023/11/21 02:06:54;;;;;;;12.93;6.77;;;10.20;99.90;;;;;;5095354;28;37520;-80
2023/11/21 02:09:25;;;;;;;15.03;6.50;;;10.20;99.90;;;;;;5103349;28;38150;-80
2023/11/21 02:11:51;;;;;;;11.27;6.77;;;10.20;99.90;;;;;;5100245;28;37505;-80
2023/11/21 02:14:20;;;;;;;18.80;8.13;;;10.20;99.90;;;;;;5098305;28;38220;-79
2023/11/21 02:16:49;;;;;;;14.27;7.80;;;10.30;99.90;;;;;;5089902;28;39547;-79
2023/11/21 02:19:29;;;;;;;14.43;7.17;;;10.30;99.90;;;;;;5087299;28;39442;-80
2023/11/21 02:22:00;;;;;;;18.00;7.70;;;10.30;99.90;;;;;;5089565;28;37107;-80
2023/11/21 02:24:27;;;;;;;18.57;7.07;;;10.30;99.90;;;;;;5088354;28;36641;-80
2023/11/21 02:26:53;;;;;;;11.97;6.53;;;10.20;99.90;;;;;;5091746;27;38755;-79
2023/11/21 02:29:22;;;;;;;12.80;6.90;;;10.20;99.90;;;;;;5091346;28;37470;-80
2023/11/21 02:31:51;;;;;;;13.75;6.60;;;10.20;99.90;;;;;;5093416;28;37933;-80
2023/11/21 02:34:17;;;;;;;12.50;6.80;;;10.20;99.90;;;;;;5090991;28;36197;-79
2023/11/21 02:36:44;;;;;;;13.77;6.90;;;10.20;99.90;;;;;;5089882;28;38923;-79
2023/11/21 02:39:11;;;;;;;10.87;6.60;;;10.20;99.90;;;;;;5086020;28;38852;-79
2023/11/21 02:41:40;;;;;;;13.87;7.43;;;10.20;99.90;;;;;;5089146;28;38650;-79
2023/11/21 02:44:06;;;;;;;15.20;7.00;;;10.20;99.90;;;;;;5091664;28;35804;-79
2023/11/21 02:46:34;;;;;;;13.40;6.93;;;10.20;99.90;;;;;;5095904;28;37725;-79
2023/11/21 02:49:01;;;;;;;14.67;7.37;;;10.10;99.90;;;;;;5093214;27;39239;-80
2023/11/21 02:51:27;;;;;;;21.53;9.00;;;10.00;99.90;;;;;;5098440;28;48999;-80
2023/11/21 02:53:54;;;;;;;11.03;7.63;;;10.00;99.90;;;;;;5096315;28;36141;-79
2023/11/21 02:56:20;;;;;;;16.07;8.07;;;10.00;99.90;;;;;;5104637;28;37741;-82
2023/11/21 02:58:46;;;;;;;29.27;9.67;;;10.10;99.90;;;;;;5102117;28;38370;-80
2023/11/21 03:01:12;;;;;;;14.87;7.77;;;10.10;99.90;;;;;;5100100;28;36853;-80
2023/11/21 03:03:39;;;;;;;16.77;7.63;;;10.10;99.90;;;;;;5104249;28;36920;-80
2023/11/21 03:06:06;;;;;;;13.20;7.47;;;10.10;99.90;;;;;;5095170;28;40103;-79
2023/11/21 03:08:32;;;;;;;16.67;7.70;;;10.10;99.90;;;;;;5097356;28;37508;-80
2023/11/21 03:10:59;;;;;;;14.60;8.13;;;10.20;99.90;;;;;;5101459;28;36893;-80
2023/11/21 03:13:25;;;;;;;16.50;8.27;;;10.10;99.90;;;;;;5100869;28;37239;-80
2023/11/21 03:15:51;;;;;;;15.07;7.70;;;10.10;99.90;;;;;;5098717;28;37123;-79
2023/11/21 03:18:17;;;;;;;12.80;6.60;;;10.20;99.90;;;;;;5093629;28;37171;-80
2023/11/21 03:20:46;;;;;;;10.73;6.87;;;10.20;99.90;;;;;;5090330;28;35723;-80
2023/11/21 03:23:12;;;;;;;16.57;7.77;;;10.20;99.90;;;;;;5095470;28;37103;-80
2023/11/21 03:25:39;;;;;;;11.10;7.22;;;10.20;99.90;;;;;;5095178;28;39145;-80
2023/11/21 03:28:05;;;;;;;13.80;7.90;;;10.20;99.90;;;;;;5096602;28;37267;-80
2023/11/21 03:30:31;;;;;;;14.50;7.90;;;10.20;99.90;;;;;;5091684;28;36960;-79
2023/11/21 03:32:57;;;;;;;15.07;7.53;;;10.20;99.90;;;;;;5090194;28;36801;-79
2023/11/21 03:35:24;;;;;;;16.37;7.77;;;10.30;99.90;;;;;;5095759;28;36017;-79
2023/11/21 03:37:50;;;;;;;13.87;7.93;;;10.30;99.90;;;;;;5089334;27;38620;-80
2023/11/21 03:40:16;;;;;;;13.18;6.93;;;10.30;99.90;;;;;;5088567;28;37002;-79
2023/11/21 03:42:42;;;;;;;11.18;6.43;;;10.30;99.90;;;;;;5090916;28;36906;-79
2023/11/21 03:45:09;;;;;;;14.87;7.83;;;10.40;99.90;;;;;;5091547;28;37025;-80
2023/11/21 03:47:35;;;;;;;15.70;8.13;;;10.40;99.90;;;;;;5094188;28;38775;-80
2023/11/21 03:50:01;;;;;;;17.77;8.20;;;10.40;99.90;;;;;;5097513;28;38496;-80
2023/11/21 03:52:28;;;;;;;10.47;6.33;;;10.40;99.90;;;;;;5094995;27;37025;-79
2023/11/21 03:54:55;;;;;;;12.87;6.70;;;10.40;99.90;;;;;;5094037;28;38559;-80
2023/11/21 03:57:21;;;;;;;11.47;7.33;;;10.40;99.90;;;;;;5097070;28;37873;-81
2023/11/21 03:59:47;;;;;;;10.13;6.67;;;10.40;99.90;;;;;;5107114;28;37150;-79
2023/11/21 04:02:14;;;;;;;7.93;5.80;;;10.40;99.90;;;;;;5091681;28;35837;-80
2023/11/21 04:04:40;;;;;;;10.13;6.20;;;10.40;99.90;;;;;;5095445;28;38086;-81
2023/11/21 04:07:06;;;;;;;15.43;7.50;;;10.40;99.90;;;;;;5109765;28;37872;-80
2023/11/21 04:09:33;;;;;;;11.37;6.70;;;10.40;99.90;;;;;;5089029;28;41043;-79
2023/11/21 04:12:03;;;;;;;8.38;5.90;;;10.40;99.90;;;;;;5094195;28;37162;-80
2023/11/21 04:14:29;;;;;;;9.20;5.93;;;10.40;99.90;;;;;;5091891;28;47328;-79
2023/11/21 04:16:58;;;;;;;16.57;7.23;;;10.40;99.90;;;;;;5097248;28;37262;-80
2023/11/21 04:19:24;;;;;;;11.50;7.18;;;10.50;99.90;;;;;;5100085;28;37026;-80
2023/11/21 04:21:50;;;;;;;11.30;6.00;;;10.50;99.90;;;;;;5101517;28;37359;-80
2023/11/21 04:24:16;;;;;;;12.27;6.37;;;10.40;99.90;;;;;;5094713;28;39254;-80
2023/11/21 04:26:45;;;;;;;9.27;6.13;;;10.40;99.90;;;;;;5096880;28;39193;-81
2023/11/21 04:29:11;;;;;;;10.07;6.17;;;10.40;99.90;;;;;;5101677;28;37614;-80
2023/11/21 04:31:39;;;;;;;11.33;6.80;;;10.50;99.90;;;;;;5100979;28;37287;-80
2023/11/21 04:34:05;;;;;;;9.20;6.32;;;10.50;99.90;;;;;;5099788;28;39071;-79
2023/11/21 04:39:11;;;;;;;8.77;5.60;;;10.50;99.90;;;;;;5090761;22;20079;-79
2023/11/21 04:41:39;;;;;;;12.27;6.88;;;10.50;99.90;;;;;;5090968;28;38001;-79
2023/11/21 04:44:06;;;;;;;9.68;6.13;;;10.50;99.90;;;;;;5085362;28;36677;-80
2023/11/21 04:46:32;;;;;;;9.25;5.80;;;10.60;99.90;;;;;;5088381;28;37515;-79
2023/11/21 04:48:58;;;;;;;11.10;6.00;;;10.50;99.90;;;;;;5089898;28;38756;-79
2023/11/21 04:51:25;;;;;;;11.70;6.57;;;10.50;99.90;;;;;;5094038;28;37044;-80
2023/11/21 04:53:51;;;;;;;16.30;7.53;;;10.50;99.90;;;;;;5086930;28;37855;-80
2023/11/21 04:56:17;;;;;;;9.27;6.32;;;10.50;99.90;;;;;;5095397;27;39051;-80
2023/11/21 04:58:44;;;;;;;10.60;6.23;;;10.50;99.90;;;;;;5095219;28;38773;-80
2023/11/21 05:01:11;;;;;;;10.77;7.30;;;10.50;99.90;;;;;;5096853;28;36925;-80
2023/11/21 05:03:38;;;;;;;9.67;6.23;;;10.50;99.90;;;;;;5095807;28;38037;-80
2023/11/21 05:06:05;;;;;;;12.73;6.77;;;10.50;99.90;;;;;;5091078;28;37392;-80
2023/11/21 05:08:31;;;;;;;16.33;7.57;;;10.50;99.90;;;;;;5095727;27;37301;-80
2023/11/21 05:10:57;;;;;;;8.93;6.25;;;10.60;99.90;;;;;;5088103;28;38624;-79
2023/11/21 05:13:27;;;;;;;14.57;7.45;;;10.60;99.90;;;;;;5089505;28;37512;-79
2023/11/21 05:15:59;;;;;;;9.17;6.80;;;10.60;99.90;;;;;;5091598;28;36205;-79
2023/11/21 05:18:29;;;;;;;9.30;6.45;;;10.60;99.90;;;;;;5090766;28;38999;-79
2023/11/21 05:20:56;;;;;;;8.10;6.67;;;10.60;99.90;;;;;;5083897;28;38150;-79
2023/11/21 05:23:22;;;;;;;9.13;6.80;;;10.70;99.90;;;;;;5092966;28;40194;-80
2023/11/21 05:25:48;;;;;;;9.27;6.90;;;10.70;99.90;;;;;;5092553;28;38900;-80
2023/11/21 05:28:14;;;;;;;13.57;7.67;;;10.70;99.90;;;;;;5100278;27;38553;-80
2023/11/21 05:30:40;;;;;;;12.77;7.73;;;10.70;99.90;;;;;;5091386;28;36048;-79
2023/11/21 05:33:06;;;;;;;9.57;7.38;;;10.70;99.90;;;;;;5092723;28;39510;-79
2023/11/21 05:35:33;;;;;;;8.80;7.07;;;10.60;99.90;;;;;;5095718;28;39395;-79
2023/11/21 05:37:59;;;;;;;10.32;7.22;;;10.70;99.90;;;;;;5084983;28;36787;-79
2023/11/21 05:40:29;;;;;;;9.00;6.73;;;10.70;99.90;;;;;;5090844;28;37568;-80
2023/11/21 05:42:55;;;;;;;11.70;7.80;;;10.70;99.90;;;;;;5091044;28;39128;-79
2023/11/21 05:45:23;;;;;;;11.65;8.50;;;10.70;99.90;;;;;;5089520;28;37618;-79
2023/11/21 05:47:56;;;;;;;10.90;7.80;;;10.70;99.90;;;;;;5094674;27;38374;-78
2023/11/21 05:50:23;;;;;;;8.45;6.68;;;10.60;99.90;;;;;;5087431;28;37747;-79
2023/11/21 05:52:49;;;;;;;12.63;7.63;;;10.60;99.90;;;;;;5087764;28;39397;-79
2023/11/21 05:55:15;;;;;;;11.97;7.60;;;10.50;99.90;;;;;;5093520;28;37404;-80
2023/11/21 05:58:05;;;;;;;11.63;7.47;;;10.40;99.90;;;;;;5096112;28;38077;-80
2023/11/21 06:00:32;;;;;;;13.13;7.57;;;10.30;99.90;;;;;;5081926;28;46596;-78
2023/11/21 06:02:58;;;;;;;17.63;8.93;;;10.10;99.90;;;;;;5089084;28;39491;-80
2023/11/21 06:05:25;;;;;;;15.37;9.13;;;10.00;99.90;;;;;;5091370;28;38929;-80
2023/11/21 06:07:52;;;;;;;17.67;8.90;;;9.90;99.90;;;;;;5091681;28;34948;-79
2023/11/21 06:10:21;;;;;;;12.03;8.17;;;9.80;99.90;;;;;;5093151;28;36168;-80
2023/11/21 06:12:48;;;;;;;17.90;8.73;;;9.80;99.90;;;;;;5095710;28;38876;-80
2023/11/21 06:15:14;;;;;;;15.83;8.90;;;9.70;99.90;;;;;;5100919;27;34797;-80
2023/11/21 06:17:41;;;;;;;11.60;7.67;;;9.60;99.90;;;;;;5090234;28;41944;-78
2023/11/21 06:20:09;;;;;;;15.43;9.00;;;9.60;99.90;;;;;;5089229;28;37853;-81
2023/11/21 06:22:37;;;;;;;12.83;8.60;;;9.60;99.90;;;;;;5093419;28;36464;-80
2023/11/21 06:25:05;;;;;;;11.33;7.93;;;9.70;99.90;;;;;;5094578;28;39645;-81
2023/11/21 06:27:37;;;;;;;11.30;6.97;;;9.80;99.90;;;;;;5097132;27;38894;-81
2023/11/21 06:30:04;;;;;;;14.23;8.52;;;9.90;99.90;;;;;;5087395;28;38984;-81
2023/11/21 06:32:30;;;;;;;15.57;8.17;;;10.10;99.90;;;;;;5094999;28;47257;-80
2023/11/21 06:34:59;;;;;;;10.70;6.80;;;10.20;99.90;;;;;;5095738;27;38419;-80
2023/11/21 06:37:29;;;;;;;13.47;7.30;;;10.20;99.90;;;;;;5087204;28;38193;-80
2023/11/21 06:39:58;;;;;;;11.40;6.53;;;10.30;99.90;;;;;;5096484;28;38856;-80
2023/11/21 06:42:24;;;;;;;10.23;6.83;;;10.40;99.90;;;;;;5094663;28;37903;-80
2023/11/21 06:44:56;;;;;;;14.43;8.00;;;10.40;99.90;;;;;;5093443;28;37068;-79
2023/11/21 06:47:25;;;;;;;15.13;8.48;;;10.40;99.90;;;;;;5099887;27;38982;-79
2023/11/21 06:49:52;;;;;;;12.50;7.97;;;10.50;99.90;;;;;;5095595;28;36045;-78
2023/11/21 06:52:19;;;;;;;16.23;7.97;;;10.50;99.90;;;;;;5098326;27;39632;-79
2023/11/21 06:54:47;;;;;;;10.67;7.00;;;10.40;99.90;;;;;;5097417;28;37511;-79
2023/11/21 06:57:14;;;;;;;14.27;7.53;;;10.30;99.90;;;;;;5087939;28;38683;-79
2023/11/21 06:59:40;;;;;;;15.90;8.50;;;10.30;99.90;;;;;;5089901;28;37991;-79
2023/11/21 07:02:06;;;;;;;18.50;8.60;;;10.40;99.90;;;;;;5089978;28;39560;-80
2023/11/21 07:04:33;;;;;;;16.70;9.40;;;10.40;99.90;;;;;;5094667;28;38786;-79
2023/11/21 07:07:00;;;;;;;18.67;9.90;;;10.40;99.90;;;;;;5094876;28;38308;-79
2023/11/21 07:09:26;;;;;;;13.97;8.63;;;10.30;99.90;;;;;;5093940;28;38399;-80
2023/11/21 07:11:53;;;;;;;19.60;9.30;;;10.30;99.90;;;;;;5102030;27;38905;-80
2023/11/21 07:14:19;;;;;;;13.87;8.00;;;10.30;99.90;;;;;;5100157;28;39132;-80
2023/11/21 07:16:46;;;;;;;15.53;8.70;;;10.20;99.90;;;;;;5096697;28;38219;-80
2023/11/21 07:19:13;;;;;;;12.73;7.90;;;10.20;99.90;;;;;;5098402;27;38401;-80
2023/11/21 07:21:39;;;;;;;16.40;8.80;;;10.10;99.90;;;;;;5103580;28;39254;-80
2023/11/21 07:24:07;;;;;;;9.40;6.47;;;10.10;99.90;;;;;;5106680;27;38813;-80
2023/11/21 07:26:34;;;;;;;11.57;6.60;;;10.10;99.90;;;;;;5105869;28;38067;-80
2023/11/21 07:29:02;;;;;;;13.40;7.37;;;10.10;99.90;;;;;;5098134;28;37207;-79
2023/11/21 07:31:29;;;;;;;17.43;7.70;;;10.20;99.90;;;;;;5089849;28;48892;-81
2023/11/21 07:33:59;;;;;;;15.93;7.27;;;10.30;99.90;;;;;;5096223;28;37141;-79
2023/11/21 07:36:25;;;;;;;16.90;5.80;;;10.40;99.90;;;;;;5097113;28;36640;-80
2023/11/21 07:38:52;;;;;;;17.83;6.53;;;10.50;99.90;;;;;;5097156;28;36398;-80
2023/11/21 07:41:19;;;;;;;15.30;7.47;;;10.60;99.90;;;;;;5101389;28;39084;-81
2023/11/21 07:43:46;;;;;;;13.75;6.13;;;10.70;99.90;;;;;;5100371;28;37220;-80
2023/11/21 07:46:16;;;;;;;16.80;7.00;;;10.70;99.90;;;;;;5086295;27;35031;-80
2023/11/21 07:48:46;;;;;;;17.80;6.85;;;10.80;99.90;;;;;;5101866;28;36456;-80
2023/11/21 07:51:13;;;;;;;14.30;7.17;;;10.80;99.90;;;;;;5104433;27;39359;-81
2023/11/21 07:53:39;;;;;;;18.60;6.55;;;10.80;99.90;;;;;;5104978;28;37554;-81
2023/11/21 07:56:10;;;;;;;18.23;6.50;;;10.90;99.90;;;;;;5104589;28;38185;-79
2023/11/21 07:58:37;;;;;;;16.63;6.40;;;10.90;99.90;;;;;;5103395;28;38177;-81
2023/11/21 08:01:05;;;;;;;12.88;5.30;;;11.00;99.90;;;;;;5103767;28;39247;-80
2023/11/21 08:03:32;;;;;;;17.17;5.63;;;11.00;99.90;;;;;;5110245;28;37982;-80
2023/11/21 08:05:59;;;;;;;15.57;6.10;;;11.00;99.90;;;;;;5108494;28;38399;-80
2023/11/21 08:08:26;;;;;;;13.95;6.13;;;11.00;99.90;;;;;;5105873;27;38443;-80
2023/11/21 08:10:58;;;;;;;22.17;6.15;;;11.00;99.90;;;;;;5117080;27;37863;-79
2023/11/21 08:13:30;;;;;;;12.48;5.63;;;11.00;99.90;;;;;;5095227;28;37284;-80
2023/11/21 08:16:03;;;;;;;13.82;5.78;;;11.00;99.90;;;;;;5102291;28;40316;-80
2023/11/21 08:18:29;;;;;;;17.35;5.53;;;11.10;99.90;;;;;;5100557;28;49925;-80
2023/11/21 08:20:57;;;;;;;19.27;6.38;;;11.10;99.90;;;;;;5103166;28;39886;-81
2023/11/21 08:23:26;;;;;;;15.30;5.38;;;11.10;99.90;;;;;;5100584;28;38322;-79
2023/11/21 08:25:53;;;;;;;16.52;5.63;;;11.20;99.90;;;;;;5101173;28;37336;-80
2023/11/21 08:28:25;;;;;;;20.73;6.75;;;11.20;99.90;;;;;;5092871;27;36966;-81
2023/11/21 08:30:54;;;;;;;15.98;5.78;;;11.10;99.90;;;;;;5083434;28;39284;-80
2023/11/21 08:33:20;;;;;;;20.80;6.97;;;11.20;99.90;;;;;;5093984;27;37402;-80
2023/11/21 08:35:46;;;;;;;13.98;5.78;;;11.20;99.90;;;;;;5102684;27;38044;-80
2023/11/21 08:38:13;;;;;;;15.63;6.25;;;11.30;99.90;;;;;;5092046;28;36511;-80
2023/11/21 08:40:39;;;;;;;24.23;7.10;;;11.30;99.90;;;;;;5100149;28;38304;-80
2023/11/21 08:43:06;;;;;;;20.70;7.18;;;11.30;99.90;;;;;;5099260;27;39487;-80
2023/11/21 08:45:34;;;;;;;13.88;6.70;;;11.30;99.90;;;;;;5099206;28;37759;-80
2023/11/21 08:48:01;;;;;;;20.35;7.22;;;11.30;99.90;;;;;;5099894;28;37449;-80
2023/11/21 08:50:28;;;;;;;12.50;6.00;;;11.20;99.90;;;;;;5100333;27;48931;-79
2023/11/21 08:52:54;;;;;;;17.83;6.60;;;11.20;99.90;;;;;;5101597;28;39457;-79
2023/11/21 08:55:20;;;;;;;21.88;7.47;;;11.30;99.90;;;;;;5096755;28;38453;-79
2023/11/21 08:57:47;;;;;;;15.15;6.72;;;11.30;99.90;;;;;;5098796;28;36046;-80
2023/11/21 09:00:16;;;;;;;21.30;7.13;;;11.40;99.90;;;;;;5100279;28;39542;-80
2023/11/21 09:02:44;;;;;;;20.40;7.07;;;11.40;99.90;;;;;;5096887;28;37949;-79
2023/11/21 09:05:14;;;;;;;22.50;7.18;;;11.60;99.90;;;;;;5094637;28;38415;-79
2023/11/21 09:07:42;;;;;;;13.65;6.15;;;11.60;99.90;;;;;;5097340;28;37174;-79
2023/11/21 09:10:09;;;;;;;16.02;6.53;;;11.70;99.90;;;;;;5093982;28;38436;-79
2023/11/21 09:12:37;;;;;;;14.30;5.95;;;11.70;99.90;;;;;;5093994;27;38720;-79
2023/11/21 09:15:05;;;;;;;14.13;5.53;;;11.70;99.90;;;;;;5098659;28;38250;-78
2023/11/21 09:17:35;;;;;;;14.38;6.15;;;11.80;99.90;;;;;;5098497;28;47701;-79
2023/11/21 09:20:05;;;;;;;16.35;5.93;;;11.80;99.90;;;;;;5099599;28;39211;-78
2023/11/21 09:22:31;;;;;;;15.98;6.10;;;11.70;99.90;;;;;;5096419;28;48544;-79
2023/11/21 09:24:58;;;;;;;11.07;5.35;;;11.70;99.90;;;;;;5097349;28;37998;-79
2023/11/21 09:27:27;;;;;;;13.32;5.63;;;11.70;99.90;;;;;;5100041;27;38718;-79
2023/11/21 09:29:57;;;;;;;8.57;4.78;;;11.70;99.90;;;;;;5101835;28;37663;-79
2023/11/21 09:32:24;;;;;;;9.57;4.93;;;11.70;99.90;;;;;;5103994;27;39654;-79
2023/11/21 09:34:50;;;;;;;8.82;4.72;;;11.70;99.90;;;;;;5103786;28;37110;-79
2023/11/21 09:37:17;;;;;;;10.38;4.97;;;11.70;99.90;;;;;;5103033;28;37522;-79
2023/11/21 09:39:43;;;;;;;12.35;4.95;;;11.70;99.90;;;;;;5098470;27;39001;-79
2023/11/21 09:42:10;;;;;;;12.02;4.63;;;11.70;99.90;;;;;;5097610;27;38986;-79
2023/11/21 09:44:51;;;;;;;10.48;6.15;;;11.70;99.90;;;;;;5104074;28;38695;-82
2023/11/21 09:47:18;;;;;;;11.85;4.80;;;11.70;99.90;;;;;;5102628;28;38610;-80
2023/11/21 09:49:47;;;;;;;8.98;4.55;;;11.80;99.90;;;;;;5106842;28;39221;-79
2023/11/21 09:52:28;;;;;;;8.65;4.68;;;11.80;99.90;;;;;;5102194;27;39899;-80
2023/11/21 09:54:58;;;;;;;7.63;5.15;;;11.80;99.90;;;;;;5105149;28;37504;-80
2023/11/21 09:57:25;;;;;;;6.97;4.55;;;11.80;99.90;;;;;;5103173;27;35930;-80
2023/11/21 09:59:59;;;;;;;10.18;5.05;;;11.80;99.90;;;;;;5109915;28;39213;-80
2023/11/21 10:02:29;;;;;;;8.20;5.95;;;11.80;99.90;;;;;;5106107;28;38509;-80
2023/11/21 10:04:56;;;;;;;8.95;6.15;;;11.70;99.90;;;;;;5103683;28;38630;-81
2023/11/21 10:07:24;;;;;;;10.95;6.15;;;11.70;99.90;;;;;;5101917;28;38662;-80
2023/11/21 10:09:52;;;;;;;11.80;5.90;;;11.70;99.90;;;;;;5106445;27;39371;-81
2023/11/21 10:12:21;;;;;;;11.05;6.10;;;11.70;99.90;;;;;;5106068;27;38618;-80
2023/11/21 10:14:52;;;;;;;8.02;6.85;;;11.70;99.90;;;;;;5104913;28;37617;-80
2023/11/21 10:17:20;;;;;;;9.73;6.75;;;11.70;99.90;;;;;;5104801;28;36721;-80
2023/11/21 10:19:47;;;;;;;8.52;6.70;;;11.70;99.90;;;;;;5106015;28;38797;-80
2023/11/21 10:22:15;;;;;;;9.30;6.97;;;11.70;99.90;;;;;;5104760;28;39615;-80
2023/11/21 10:24:43;;;;;;;7.22;5.90;;;11.70;99.90;;;;;;5107039;28;37599;-80
2023/11/21 10:27:09;;;;;;;9.68;6.63;;;11.70;99.90;;;;;;5105344;28;37986;-80
2023/11/21 10:29:36;;;;;;;12.60;7.07;;;11.70;99.90;;;;;;5107087;27;38984;-79
2023/11/21 10:32:03;;;;;;;9.20;6.60;;;11.70;99.90;;;;;;5104499;28;38486;-80
2023/11/21 10:34:29;;;;;;;12.02;7.03;;;11.80;99.90;;;;;;5104796;28;38553;-79
2023/11/21 10:36:57;;;;;;;11.88;6.95;;;11.80;99.90;;;;;;5104819;28;36219;-79
2023/11/21 10:39:30;;;;;;;10.65;6.93;;;11.80;99.90;;;;;;5100056;28;37790;-80
2023/11/21 10:41:57;;;;;;;9.85;7.63;;;11.80;99.90;;;;;;5100050;28;39851;-80
2023/11/21 10:44:25;;;;;;;9.82;6.40;;;11.80;99.90;;;;;;5106578;28;37628;-80
2023/11/21 10:46:56;;;;;;;12.32;7.57;;;11.80;99.90;;;;;;5106552;28;38327;-78
2023/11/21 10:49:24;;;;;;;11.75;8.88;;;11.80;99.90;;;;;;5103835;28;39121;-80
2023/11/21 10:51:55;;;;;;;19.10;10.23;;;11.70;99.90;;;;;;5105752;28;38787;-80
2023/11/21 10:54:23;;;;;;;15.02;9.55;;;11.70;99.90;;;;;;5106687;28;38240;-80
2023/11/21 10:56:53;;;;;;;13.80;9.77;;;11.70;99.90;;;;;;5106751;28;38148;-80
2023/11/21 10:59:24;;;;;;;13.73;8.98;;;11.70;99.90;;;;;;5102828;28;36520;-80
2023/11/21 11:01:52;;;;;;;12.30;9.57;;;11.70;99.90;;;;;;5102316;28;38243;-79
2023/11/21 11:04:19;;;;;;;11.90;8.75;;;11.60;99.90;;;;;;5098358;28;38777;-79
2023/11/21 11:06:57;;;;;;;11.25;8.70;;;11.60;99.90;;;;;;5106506;28;36235;-79
2023/11/21 11:09:24;;;;;;;12.35;9.00;;;11.60;99.90;;;;;;5100838;28;37324;-80
2023/11/21 11:11:52;;;;;;;10.25;7.97;;;11.60;99.90;;;;;;5108003;28;36698;-80
2023/11/21 11:14:19;;;;;;;10.27;7.90;;;11.60;99.90;;;;;;5108553;28;37828;-80
2023/11/21 11:16:46;;;;;;;16.38;9.10;;;11.60;99.90;;;;;;5107000;28;38617;-79
2023/11/21 11:19:16;;;;;;;11.23;8.15;;;11.60;99.90;;;;;;5102935;27;38759;-80
2023/11/21 11:21:57;;;;;;;10.88;8.27;;;11.60;99.90;;;;;;5108097;28;38892;-80
2023/11/21 11:24:32;;;;;;;10.57;8.05;;;11.60;99.90;;;;;;5104451;28;38276;-79
2023/11/21 11:27:23;;;;;;;10.18;7.07;;;11.70;99.90;;;;;;5111795;27;38147;-81
2023/11/21 11:30:15;;;;;;;9.85;7.18;;;11.70;99.90;;;;;;5108974;27;49607;-81
2023/11/21 11:32:56;;;;;;;8.63;7.03;;;11.80;99.90;;;;;;5076629;28;47185;-81
2023/11/21 11:35:41;;;;;;;8.05;6.20;;;11.70;99.90;;;;;;5111724;27;39139;-81
2023/11/21 11:38:11;;;;;;;8.25;6.45;;;11.70;99.90;;;;;;5111081;27;38417;-81
2023/11/21 11:40:45;;;;;;;9.45;6.80;;;11.70;99.90;;;;;;5111179;28;37588;-81
2023/11/21 11:43:11;;;;;;;12.82;7.68;;;11.70;99.90;;;;;;5110451;27;38273;-81
2023/11/21 11:45:42;;;;;;;10.23;6.97;;;11.70;99.90;;;;;;5105176;28;37097;-79
2023/11/21 11:48:13;;;;;;;8.32;6.75;;;11.70;99.90;;;;;;5097446;28;36060;-80
2023/11/21 11:51:08;;;;;;;9.30;7.60;;;11.70;99.90;;;;;;5109316;28;38735;-80
2023/11/21 11:53:45;;;;;;;11.13;8.00;;;11.70;99.90;;;;;;5108357;22;47622;-75
2023/11/21 11:56:34;;;;;;;9.35;7.35;;;11.70;99.90;;;;;;5085869;28;37357;-76
2023/11/21 11:59:02;;;;;;;10.20;7.68;;;11.80;99.90;;;;;;5068137;28;36038;-76
2023/11/21 12:01:29;;;;;;;10.63;6.78;;;11.80;99.90;;;;;;5065849;28;47418;-76
2023/11/21 12:04:14;;;;;;;10.95;7.40;;;11.90;99.90;;;;;;5070187;28;39414;-76
2023/11/21 12:06:43;;;;;;;12.35;8.25;;;11.90;99.90;;;;;;5063134;28;48969;-77
2023/11/21 12:09:21;;;;;;;11.27;7.88;;;11.80;99.90;;;;;;5065531;28;38833;-77
2023/11/21 12:11:49;;;;;;;11.00;8.05;;;11.70;99.90;;;;;;5082586;28;38929;-76
2023/11/21 12:14:15;;;;;;;11.75;8.00;;;11.70;99.90;;;;;;5101786;27;37298;-77
2023/11/21 12:16:43;;;;;;;12.95;7.95;;;11.70;99.90;;;;;;5073368;28;37246;-76
2023/11/21 12:19:12;;;;;;;11.20;8.10;;;11.80;99.90;;;;;;5077620;28;36656;-76
2023/11/21 12:21:43;;;;;;;11.50;8.13;;;11.80;99.90;;;;;;5074549;28;38919;-77
2023/11/21 12:24:09;;;;;;;11.02;8.15;;;11.90;99.90;;;;;;5066946;28;38366;-76
2023/11/21 12:26:36;;;;;;;11.18;8.57;;;11.90;99.90;;;;;;5061107;28;38412;-77
2023/11/21 12:29:04;;;;;;;11.02;8.57;;;11.90;99.90;;;;;;5071552;27;36957;-76
2023/11/21 12:31:31;;;;;;;12.48;9.25;;;11.90;99.90;;;;;;5069659;28;39300;-76
2023/11/21 12:33:57;;;;;;;14.82;9.48;;;11.90;99.90;;;;;;5057559;28;37711;-75
2023/11/21 12:36:24;;;;;;;13.63;9.43;;;12.00;99.90;;;;;;5046482;28;38297;-76
2023/11/21 12:38:51;;;;;;;12.05;8.65;;;11.90;99.90;;;;;;5104999;28;37422;-76
2023/11/21 12:41:17;;;;;;;13.13;8.90;;;11.90;99.90;;;;;;5065549;28;38633;-76
2023/11/21 12:43:44;;;;;;;12.80;9.07;;;11.90;99.90;;;;;;5071183;28;38405;-76
2023/11/21 12:46:10;;;;;;;12.43;8.60;;;11.90;99.90;;;;;;5101488;28;37922;-76
2023/11/21 12:48:42;;;;;;;12.38;9.65;;;11.90;99.90;;;;;;5069856;28;38370;-76